Ledyard, CT

3:43 AM EDT on May 05, 2015 (GMT -0400)
Parsonage Hill | | Change Station
CLOSE
Current Station
Personal Weather Station
Location: Ledyard, CT
Elevation: 400 ft
Nearby Weather Stations

Elev 400 ft 41.46 °N, 72.00 °W | Updated 5 seconds ago

Partly Cloudy
Partly Cloudy
62.2 °F
Feels Like 62.2 °F
N
5.4
Wind Variable Wind from SW
Gusts 7.2 mph

Today
High -- | Low -- °F
--% Chance of Precip.
Yesterday
High -- | Low -- °F
Precip. -- in
5:40 AM 7:49 PM
Full, 99% visible
Pressure 30.15 in
Visibility 10.0 miles
Clouds Scattered Clouds 11000 ft
Dew Point 35 °F
Humidity 36%
Rainfall 0.00 in
Snow Depth Not available.
UV 0 out of 12
Pollen 11.20 out of 12
Air Quality Not available.
Flu Activity Widespread
METAR KGON 050656Z AUTO 23010KT 10SM SCT110 15/07 A3015 RMK AO2 SLP210 T01500067

More Conditions Fewer Conditions

Pressure 30.15 in
Visibility 10.0 miles
Clouds Scattered Clouds 11000 ft
Dew Point 35 °F
Humidity 36%
Rainfall 0.00 in
Snow Depth Not available.
UV 0 out of 12
Pollen 11.20 out of 12
Air Quality Not available.
Flu Activity Widespread
METAR KGON 050656Z AUTO 23010KT 10SM SCT110 15/07 A3015 RMK AO2 SLP210 T01500067

More Conditions Fewer Conditions

Nepal has a long way to go to dig out and rebuild from a devastating earthquake. We have teamed up with several charities and organizations to make contributing to the relief effort as easy as possible.
How you can help: Portlight Strategies | Red Cross

10-Day Weather Forecast

Almanac

Astronomy

May. 05, 2015 Rise Set
Actual Time
Civil Twilight
Nautical Twilight
Astronomical Twilight
Moon
Length of Visible Light
Length of Day
Tomorrow will be .
, % of the Moon is Illuminated

Today's Extremes

State Highs State Lows

Community

WunderPhotos

Upload Photos

1,818,814 photos uploaded!

WunderBlogs® & News

Nearby

Air Quality

  Air Quality AQ Index Pollutant
Not available.

Snow Depth

Station Depth Elevation

Earthquake Activity

City Distance Mag. Time & Date
Minimum magnitude displayed is 2.5.

Coastal Water Temperatures

Place Temperature

Stations

Nearby Weather Stations

Station Location Temp. Windchill Dew Point Humidity Wind Precip. Elev Updated Type